LFSX 181530Z AUTO 34004KT 290V020 9999 -RA FEW019/// SCT052/// BKN066/// ///CB 21/18 Q1013

ElémentsDécodage
LFSX Station météo située sur l'aérodrome de LUXEUIL Saint-Sauveur
181530Z émis le 18 du mois à 15h30 UTC
AUTO Bulletin édité par un automate
34004KT vent du 340°, 04 noeuds
290V020 vent de direction variable entre 290° et 020°
9999 visibilité horizontale supérieure à 10 Km
-RA faible pluie
FEW019/// nuages rares (1/8 à 2/8) à 1900 pieds
 type de nuage non observable
SCT052/// nuages épars (3/8 à 4/8) à 5200 pieds
 type de nuage non observable
BKN066/// nuages morcelés (5/8 à 7/8) à 6600 pieds
 type de nuage non observable
///CB élement non décodé
21/18 température 21°C, point de rosée 18°C
 soit une humidité relative de 83%
Q1013 la pression au niveau de la mer (QNH) est de 1013 hPa